Arnold, Missouri
Current Conditions -  °F | °C
As of 1:53 PM on Friday 24 Oct 2014 (Local Time) from KCPS Reporting Station
Clear Clear  
Wind Chill: 71°   Ceiling: Unl
Heat Index: 71°   Visibility: 10mi
Dew Point: 54°   Wind: 5mph
Humidity: 55%   Direction: 210°SSW
Pressure: 30.06"   Gusts: NA
Location:  38.42°N, 90.37°W
Report Text: KCPS 241853Z 21004KT 10SM CLR 22/12 A3006 RMK AO2 SLP179 T02170122
Loading
Personal Weather Stations






























Interactive Weather Map New forecast layout! Learn more

10-Day Weather Forecast

Advertisements
Track Severe Weather on mobile